sensor_id;sensor_type;location;lat;lon;timestamp;P1;durP1;ratioP1;P2;durP2;ratioP2
4508;SDS011;2267;48.816;9.230;2023-05-07T00:01:36;6.70;;;5.83;;
4508;SDS011;2267;48.816;9.230;2023-05-07T00:04:02;8.30;;;5.77;;
4508;SDS011;2267;48.816;9.230;2023-05-07T00:06:30;6.27;;;5.73;;
4508;SDS011;2267;48.816;9.230;2023-05-07T00:08:58;5.93;;;5.23;;
4508;SDS011;2267;48.816;9.230;2023-05-07T00:11:27;6.23;;;5.60;;
4508;SDS011;2267;48.816;9.230;2023-05-07T00:13:54;6.20;;;5.53;;
4508;SDS011;2267;48.816;9.230;2023-05-07T00:16:21;6.30;;;5.77;;
4508;SDS011;2267;48.816;9.230;2023-05-07T00:18:48;5.87;;;5.37;;
4508;SDS011;2267;48.816;9.230;2023-05-07T00:21:15;5.90;;;5.40;;
4508;SDS011;2267;48.816;9.230;2023-05-07T00:23:42;6.73;;;5.27;;
4508;SDS011;2267;48.816;9.230;2023-05-07T00:26:09;6.47;;;5.90;;
4508;SDS011;2267;48.816;9.230;2023-05-07T00:28:35;6.40;;;5.80;;
4508;SDS011;2267;48.816;9.230;2023-05-07T00:31:02;6.07;;;5.57;;
4508;SDS011;2267;48.816;9.230;2023-05-07T00:33:29;6.70;;;5.70;;
4508;SDS011;2267;48.816;9.230;2023-05-07T00:35:56;7.07;;;5.60;;
4508;SDS011;2267;48.816;9.230;2023-05-07T00:38:23;5.93;;;5.43;;
4508;SDS011;2267;48.816;9.230;2023-05-07T00:40:50;6.47;;;5.17;;
4508;SDS011;2267;48.816;9.230;2023-05-07T00:43:17;7.00;;;4.37;;
4508;SDS011;2267;48.816;9.230;2023-05-07T00:45:44;6.43;;;5.90;;
4508;SDS011;2267;48.816;9.230;2023-05-07T00:48:11;6.00;;;5.50;;
4508;SDS011;2267;48.816;9.230;2023-05-07T00:50:40;8.10;;;6.40;;
4508;SDS011;2267;48.816;9.230;2023-05-07T00:53:07;6.40;;;5.80;;
4508;SDS011;2267;48.816;9.230;2023-05-07T00:55:35;6.50;;;5.90;;
4508;SDS011;2267;48.816;9.230;2023-05-07T00:58:02;8.10;;;5.90;;
4508;SDS011;2267;48.816;9.230;2023-05-07T01:00:29;5.50;;;5.10;;
4508;SDS011;2267;48.816;9.230;2023-05-07T01:02:56;7.60;;;5.27;;
4508;SDS011;2267;48.816;9.230;2023-05-07T01:05:24;6.27;;;5.67;;
4508;SDS011;2267;48.816;9.230;2023-05-07T01:07:54;6.67;;;6.07;;
4508;SDS011;2267;48.816;9.230;2023-05-07T01:10:22;6.70;;;6.00;;
4508;SDS011;2267;48.816;9.230;2023-05-07T01:12:50;7.17;;;5.67;;
4508;SDS011;2267;48.816;9.230;2023-05-07T01:15:17;6.30;;;5.73;;
4508;SDS011;2267;48.816;9.230;2023-05-07T01:17:45;6.13;;;5.00;;
4508;SDS011;2267;48.816;9.230;2023-05-07T01:20:11;6.60;;;5.73;;
4508;SDS011;2267;48.816;9.230;2023-05-07T01:22:40;5.40;;;4.90;;
4508;SDS011;2267;48.816;9.230;2023-05-07T01:25:08;7.70;;;5.17;;
4508;SDS011;2267;48.816;9.230;2023-05-07T01:27:35;6.23;;;4.50;;
4508;SDS011;2267;48.816;9.230;2023-05-07T01:30:03;5.90;;;5.40;;
4508;SDS011;2267;48.816;9.230;2023-05-07T01:32:47;5.40;;;4.90;;
4508;SDS011;2267;48.816;9.230;2023-05-07T01:35:19;5.63;;;5.13;;
4508;SDS011;2267;48.816;9.230;2023-05-07T01:37:48;5.23;;;4.73;;
4508;SDS011;2267;48.816;9.230;2023-05-07T01:40:16;6.80;;;5.00;;
4508;SDS011;2267;48.816;9.230;2023-05-07T01:42:43;5.20;;;4.73;;
4508;SDS011;2267;48.816;9.230;2023-05-07T01:45:11;6.40;;;5.80;;
4508;SDS011;2267;48.816;9.230;2023-05-07T01:47:38;4.57;;;4.17;;
4508;SDS011;2267;48.816;9.230;2023-05-07T01:50:06;6.03;;;4.50;;
4508;SDS011;2267;48.816;9.230;2023-05-07T01:52:36;6.03;;;5.20;;
4508;SDS011;2267;48.816;9.230;2023-05-07T01:55:04;6.07;;;5.60;;
4508;SDS011;2267;48.816;9.230;2023-05-07T01:57:32;6.90;;;4.67;;
4508;SDS011;2267;48.816;9.230;2023-05-07T01:59:59;4.90;;;4.50;;
4508;SDS011;2267;48.816;9.230;2023-05-07T02:02:26;5.70;;;5.20;;
4508;SDS011;2267;48.816;9.230;2023-05-07T02:04:53;5.80;;;5.30;;
4508;SDS011;2267;48.816;9.230;2023-05-07T02:07:19;6.37;;;5.77;;
4508;SDS011;2267;48.816;9.230;2023-05-07T02:09:46;5.90;;;5.40;;
4508;SDS011;2267;48.816;9.230;2023-05-07T02:12:13;6.10;;;5.60;;
4508;SDS011;2267;48.816;9.230;2023-05-07T02:14:40;4.90;;;4.50;;
4508;SDS011;2267;48.816;9.230;2023-05-07T02:17:07;6.07;;;5.40;;
4508;SDS011;2267;48.816;9.230;2023-05-07T02:19:33;5.70;;;5.20;;
4508;SDS011;2267;48.816;9.230;2023-05-07T02:22:01;5.30;;;4.90;;
4508;SDS011;2267;48.816;9.230;2023-05-07T02:24:27;6.20;;;5.00;;
4508;SDS011;2267;48.816;9.230;2023-05-07T02:26:54;6.10;;;5.50;;
4508;SDS011;2267;48.816;9.230;2023-05-07T02:29:21;5.90;;;5.37;;
4508;SDS011;2267;48.816;9.230;2023-05-07T02:31:48;5.60;;;5.10;;
4508;SDS011;2267;48.816;9.230;2023-05-07T02:34:17;5.27;;;4.37;;
4508;SDS011;2267;48.816;9.230;2023-05-07T02:36:43;5.23;;;4.50;;
4508;SDS011;2267;48.816;9.230;2023-05-07T02:39:11;5.53;;;4.60;;
4508;SDS011;2267;48.816;9.230;2023-05-07T02:41:39;7.27;;;5.43;;
4508;SDS011;2267;48.816;9.230;2023-05-07T02:44:05;4.67;;;4.27;;
4508;SDS011;2267;48.816;9.230;2023-05-07T02:46:32;4.47;;;4.07;;
4508;SDS011;2267;48.816;9.230;2023-05-07T02:48:59;4.83;;;4.33;;
4508;SDS011;2267;48.816;9.230;2023-05-07T02:51:26;4.33;;;3.93;;
4508;SDS011;2267;48.816;9.230;2023-05-07T02:53:53;4.60;;;3.63;;
4508;SDS011;2267;48.816;9.230;2023-05-07T02:56:20;6.10;;;5.50;;
4508;SDS011;2267;48.816;9.230;2023-05-07T02:58:47;4.50;;;4.20;;
4508;SDS011;2267;48.816;9.230;2023-05-07T03:01:14;4.93;;;4.53;;
4508;SDS011;2267;48.816;9.230;2023-05-07T03:03:40;5.30;;;4.80;;
4508;SDS011;2267;48.816;9.230;2023-05-07T03:06:07;4.53;;;4.13;;
4508;SDS011;2267;48.816;9.230;2023-05-07T03:08:34;4.00;;;3.60;;
4508;SDS011;2267;48.816;9.230;2023-05-07T03:11:01;5.10;;;4.63;;
4508;SDS011;2267;48.816;9.230;2023-05-07T03:13:28;4.90;;;4.40;;
4508;SDS011;2267;48.816;9.230;2023-05-07T03:15:55;6.43;;;4.67;;
4508;SDS011;2267;48.816;9.230;2023-05-07T03:18:22;4.30;;;3.93;;
4508;SDS011;2267;48.816;9.230;2023-05-07T03:20:49;4.77;;;4.10;;
4508;SDS011;2267;48.816;9.230;2023-05-07T03:23:15;4.83;;;4.43;;
4508;SDS011;2267;48.816;9.230;2023-05-07T03:25:42;4.90;;;4.50;;
4508;SDS011;2267;48.816;9.230;2023-05-07T03:28:09;7.77;;;4.70;;
4508;SDS011;2267;48.816;9.230;2023-05-07T03:30:36;5.50;;;4.90;;
4508;SDS011;2267;48.816;9.230;2023-05-07T03:33:02;4.30;;;3.90;;
4508;SDS011;2267;48.816;9.230;2023-05-07T03:35:29;4.70;;;4.30;;
4508;SDS011;2267;48.816;9.230;2023-05-07T03:37:56;5.07;;;4.57;;
4508;SDS011;2267;48.816;9.230;2023-05-07T03:40:23;6.13;;;4.63;;
4508;SDS011;2267;48.816;9.230;2023-05-07T03:42:49;5.67;;;4.20;;
4508;SDS011;2267;48.816;9.230;2023-05-07T03:45:16;5.00;;;4.50;;
4508;SDS011;2267;48.816;9.230;2023-05-07T03:47:43;4.60;;;4.20;;
4508;SDS011;2267;48.816;9.230;2023-05-07T03:50:10;5.93;;;4.70;;
4508;SDS011;2267;48.816;9.230;2023-05-07T03:52:37;5.07;;;4.57;;
4508;SDS011;2267;48.816;9.230;2023-05-07T03:55:04;4.87;;;4.47;;
4508;SDS011;2267;48.816;9.230;2023-05-07T03:57:32;5.20;;;4.70;;
4508;SDS011;2267;48.816;9.230;2023-05-07T03:59:59;5.03;;;4.40;;
4508;SDS011;2267;48.816;9.230;2023-05-07T04:02:25;5.80;;;4.17;;
4508;SDS011;2267;48.816;9.230;2023-05-07T04:04:52;4.47;;;4.07;;
4508;SDS011;2267;48.816;9.230;2023-05-07T04:07:19;5.10;;;4.60;;
4508;SDS011;2267;48.816;9.230;2023-05-07T04:09:46;5.60;;;5.00;;
4508;SDS011;2267;48.816;9.230;2023-05-07T04:12:12;5.50;;;5.00;;
4508;SDS011;2267;48.816;9.230;2023-05-07T04:14:41;5.87;;;5.37;;
4508;SDS011;2267;48.816;9.230;2023-05-07T04:17:07;6.43;;;4.50;;
4508;SDS011;2267;48.816;9.230;2023-05-07T04:19:35;5.30;;;4.80;;
4508;SDS011;2267;48.816;9.230;2023-05-07T04:22:02;5.63;;;5.17;;
4508;SDS011;2267;48.816;9.230;2023-05-07T04:24:32;5.07;;;4.57;;
4508;SDS011;2267;48.816;9.230;2023-05-07T04:26:59;5.03;;;4.53;;
4508;SDS011;2267;48.816;9.230;2023-05-07T04:29:26;5.80;;;4.80;;
4508;SDS011;2267;48.816;9.230;2023-05-07T04:31:53;5.63;;;5.03;;
4508;SDS011;2267;48.816;9.230;2023-05-07T04:34:21;5.37;;;4.87;;
4508;SDS011;2267;48.816;9.230;2023-05-07T04:36:48;4.60;;;4.30;;
4508;SDS011;2267;48.816;9.230;2023-05-07T04:39:15;4.50;;;4.10;;
4508;SDS011;2267;48.816;9.230;2023-05-07T04:41:42;4.67;;;3.43;;
4508;SDS011;2267;48.816;9.230;2023-05-07T04:44:09;6.50;;;5.63;;
4508;SDS011;2267;48.816;9.230;2023-05-07T04:46:36;5.57;;;5.07;;
4508;SDS011;2267;48.816;9.230;2023-05-07T04:49:02;6.03;;;5.53;;
4508;SDS011;2267;48.816;9.230;2023-05-07T04:51:29;6.57;;;5.00;;
4508;SDS011;2267;48.816;9.230;2023-05-07T04:53:58;4.87;;;4.30;;
4508;SDS011;2267;48.816;9.230;2023-05-07T04:56:27;7.67;;;5.20;;
4508;SDS011;2267;48.816;9.230;2023-05-07T04:58:55;6.53;;;5.10;;
4508;SDS011;2267;48.816;9.230;2023-05-07T05:01:22;5.40;;;4.90;;
4508;SDS011;2267;48.816;9.230;2023-05-07T05:03:49;4.73;;;4.33;;
4508;SDS011;2267;48.816;9.230;2023-05-07T05:06:16;5.30;;;4.80;;
4508;SDS011;2267;48.816;9.230;2023-05-07T05:08:42;5.90;;;5.23;;
4508;SDS011;2267;48.816;9.230;2023-05-07T05:11:09;6.37;;;5.60;;
4508;SDS011;2267;48.816;9.230;2023-05-07T05:13:36;5.83;;;5.30;;
4508;SDS011;2267;48.816;9.230;2023-05-07T05:16:03;5.80;;;5.23;;
4508;SDS011;2267;48.816;9.230;2023-05-07T05:18:30;6.73;;;5.20;;
4508;SDS011;2267;48.816;9.230;2023-05-07T05:20:57;6.10;;;4.90;;
4508;SDS011;2267;48.816;9.230;2023-05-07T05:23:24;6.50;;;5.47;;
4508;SDS011;2267;48.816;9.230;2023-05-07T05:25:54;5.97;;;5.40;;
4508;SDS011;2267;48.816;9.230;2023-05-07T05:28:23;6.03;;;5.53;;
4508;SDS011;2267;48.816;9.230;2023-05-07T05:30:50;5.80;;;5.30;;
4508;SDS011;2267;48.816;9.230;2023-05-07T05:33:17;6.00;;;5.50;;
4508;SDS011;2267;48.816;9.230;2023-05-07T05:35:43;6.77;;;5.60;;
4508;SDS011;2267;48.816;9.230;2023-05-07T05:38:11;6.53;;;5.80;;
4508;SDS011;2267;48.816;9.230;2023-05-07T05:40:37;5.50;;;5.00;;
4508;SDS011;2267;48.816;9.230;2023-05-07T05:43:05;5.53;;;5.03;;
4508;SDS011;2267;48.816;9.230;2023-05-07T05:45:32;6.40;;;5.40;;
4508;SDS011;2267;48.816;9.230;2023-05-07T05:47:59;8.10;;;6.07;;
4508;SDS011;2267;48.816;9.230;2023-05-07T05:50:26;6.43;;;5.80;;
4508;SDS011;2267;48.816;9.230;2023-05-07T05:52:52;6.10;;;5.57;;
4508;SDS011;2267;48.816;9.230;2023-05-07T05:55:19;6.90;;;5.53;;
4508;SDS011;2267;48.816;9.230;2023-05-07T05:57:46;6.63;;;6.00;;
4508;SDS011;2267;48.816;9.230;2023-05-07T06:00:14;6.37;;;5.73;;
4508;SDS011;2267;48.816;9.230;2023-05-07T06:02:42;6.40;;;5.83;;
4508;SDS011;2267;48.816;9.230;2023-05-07T06:05:09;6.83;;;5.90;;
4508;SDS011;2267;48.816;9.230;2023-05-07T06:07:36;9.33;;;6.67;;
4508;SDS011;2267;48.816;9.230;2023-05-07T06:10:02;7.17;;;6.57;;
4508;SDS011;2267;48.816;9.230;2023-05-07T06:12:29;7.90;;;7.10;;
4508;SDS011;2267;48.816;9.230;2023-05-07T06:14:56;6.80;;;6.20;;
4508;SDS011;2267;48.816;9.230;2023-05-07T06:17:23;7.33;;;6.73;;
4508;SDS011;2267;48.816;9.230;2023-05-07T06:19:50;7.40;;;6.80;;
4508;SDS011;2267;48.816;9.230;2023-05-07T06:22:18;7.10;;;6.47;;
4508;SDS011;2267;48.816;9.230;2023-05-07T06:24:45;7.83;;;6.90;;
4508;SDS011;2267;48.816;9.230;2023-05-07T06:27:12;6.30;;;5.80;;
4508;SDS011;2267;48.816;9.230;2023-05-07T06:29:39;7.67;;;6.87;;
4508;SDS011;2267;48.816;9.230;2023-05-07T06:32:06;6.80;;;6.30;;
4508;SDS011;2267;48.816;9.230;2023-05-07T06:34:34;6.80;;;6.10;;
4508;SDS011;2267;48.816;9.230;2023-05-07T06:37:01;7.10;;;6.40;;
4508;SDS011;2267;48.816;9.230;2023-05-07T06:39:28;7.23;;;6.53;;
4508;SDS011;2267;48.816;9.230;2023-05-07T06:41:55;6.17;;;5.67;;
4508;SDS011;2267;48.816;9.230;2023-05-07T06:44:22;6.90;;;6.33;;
4508;SDS011;2267;48.816;9.230;2023-05-07T06:46:48;6.60;;;5.80;;
4508;SDS011;2267;48.816;9.230;2023-05-07T06:49:15;6.40;;;5.90;;
4508;SDS011;2267;48.816;9.230;2023-05-07T06:51:42;7.10;;;6.40;;
4508;SDS011;2267;48.816;9.230;2023-05-07T06:54:09;6.43;;;5.90;;
4508;SDS011;2267;48.816;9.230;2023-05-07T06:56:35;7.57;;;6.87;;
4508;SDS011;2267;48.816;9.230;2023-05-07T06:59:02;6.00;;;5.50;;
4508;SDS011;2267;48.816;9.230;2023-05-07T07:01:29;5.93;;;5.47;;
4508;SDS011;2267;48.816;9.230;2023-05-07T07:03:56;6.10;;;5.60;;
4508;SDS011;2267;48.816;9.230;2023-05-07T07:06:23;6.30;;;5.70;;
4508;SDS011;2267;48.816;9.230;2023-05-07T07:08:50;6.03;;;5.53;;
4508;SDS011;2267;48.816;9.230;2023-05-07T07:11:17;6.40;;;5.73;;
4508;SDS011;2267;48.816;9.230;2023-05-07T07:13:43;6.40;;;5.90;;
4508;SDS011;2267;48.816;9.230;2023-05-07T07:16:10;6.37;;;5.77;;
4508;SDS011;2267;48.816;9.230;2023-05-07T07:18:37;5.30;;;4.90;;
4508;SDS011;2267;48.816;9.230;2023-05-07T07:21:04;5.80;;;5.33;;
4508;SDS011;2267;48.816;9.230;2023-05-07T07:23:31;5.73;;;5.23;;
4508;SDS011;2267;48.816;9.230;2023-05-07T07:25:58;5.87;;;5.17;;
4508;SDS011;2267;48.816;9.230;2023-05-07T07:28:25;5.33;;;4.83;;
4508;SDS011;2267;48.816;9.230;2023-05-07T07:30:52;5.63;;;5.17;;
4508;SDS011;2267;48.816;9.230;2023-05-07T07:33:19;5.90;;;5.37;;
4508;SDS011;2267;48.816;9.230;2023-05-07T07:35:46;5.03;;;4.63;;
4508;SDS011;2267;48.816;9.230;2023-05-07T07:38:13;5.57;;;5.17;;
4508;SDS011;2267;48.816;9.230;2023-05-07T07:40:39;5.63;;;5.23;;
4508;SDS011;2267;48.816;9.230;2023-05-07T07:43:06;5.57;;;5.07;;
4508;SDS011;2267;48.816;9.230;2023-05-07T07:45:33;4.60;;;4.20;;
4508;SDS011;2267;48.816;9.230;2023-05-07T07:48:01;6.30;;;4.90;;
4508;SDS011;2267;48.816;9.230;2023-05-07T07:50:27;10.47;;;4.90;;
4508;SDS011;2267;48.816;9.230;2023-05-07T07:53:10;5.60;;;5.10;;
4508;SDS011;2267;48.816;9.230;2023-05-07T07:55:39;6.10;;;5.60;;
4508;SDS011;2267;48.816;9.230;2023-05-07T07:58:06;5.90;;;5.40;;
4508;SDS011;2267;48.816;9.230;2023-05-07T08:00:33;5.07;;;4.67;;
4508;SDS011;2267;48.816;9.230;2023-05-07T08:03:00;4.03;;;3.73;;
4508;SDS011;2267;48.816;9.230;2023-05-07T08:05:29;4.97;;;4.47;;
4508;SDS011;2267;48.816;9.230;2023-05-07T08:07:56;5.93;;;5.40;;
4508;SDS011;2267;48.816;9.230;2023-05-07T08:10:23;4.60;;;4.20;;
4508;SDS011;2267;48.816;9.230;2023-05-07T08:12:50;5.00;;;4.60;;
4508;SDS011;2267;48.816;9.230;2023-05-07T08:15:17;5.97;;;4.97;;
4508;SDS011;2267;48.816;9.230;2023-05-07T08:17:44;4.73;;;4.40;;
4508;SDS011;2267;48.816;9.230;2023-05-07T08:20:11;5.07;;;4.63;;
4508;SDS011;2267;48.816;9.230;2023-05-07T08:22:38;5.30;;;4.80;;
4508;SDS011;2267;48.816;9.230;2023-05-07T08:25:05;4.70;;;4.30;;
4508;SDS011;2267;48.816;9.230;2023-05-07T08:27:32;5.20;;;4.70;;
4508;SDS011;2267;48.816;9.230;2023-05-07T08:29:58;4.97;;;4.40;;
4508;SDS011;2267;48.816;9.230;2023-05-07T08:32:25;4.83;;;4.43;;
4508;SDS011;2267;48.816;9.230;2023-05-07T08:34:52;4.60;;;4.20;;
4508;SDS011;2267;48.816;9.230;2023-05-07T08:37:19;4.17;;;3.87;;
4508;SDS011;2267;48.816;9.230;2023-05-07T08:39:46;4.33;;;3.93;;
4508;SDS011;2267;48.816;9.230;2023-05-07T08:42:13;6.80;;;4.83;;
4508;SDS011;2267;48.816;9.230;2023-05-07T08:44:44;4.93;;;4.30;;
4508;SDS011;2267;48.816;9.230;2023-05-07T08:47:14;4.67;;;4.27;;
4508;SDS011;2267;48.816;9.230;2023-05-07T08:49:42;4.90;;;4.50;;
4508;SDS011;2267;48.816;9.230;2023-05-07T08:52:11;4.53;;;4.23;;
4508;SDS011;2267;48.816;9.230;2023-05-07T08:54:38;6.20;;;4.20;;
4508;SDS011;2267;48.816;9.230;2023-05-07T08:57:05;5.33;;;4.93;;
4508;SDS011;2267;48.816;9.230;2023-05-07T08:59:32;5.50;;;4.63;;
4508;SDS011;2267;48.816;9.230;2023-05-07T09:01:59;4.40;;;3.80;;
4508;SDS011;2267;48.816;9.230;2023-05-07T09:04:26;4.73;;;4.10;;
4508;SDS011;2267;48.816;9.230;2023-05-07T09:06:53;6.47;;;4.33;;
4508;SDS011;2267;48.816;9.230;2023-05-07T09:09:21;4.60;;;4.20;;
4508;SDS011;2267;48.816;9.230;2023-05-07T09:11:48;4.00;;;3.60;;
4508;SDS011;2267;48.816;9.230;2023-05-07T09:14:22;4.53;;;3.90;;
4508;SDS011;2267;48.816;9.230;2023-05-07T09:16:49;3.20;;;2.90;;
4508;SDS011;2267;48.816;9.230;2023-05-07T09:19:21;3.47;;;3.17;;
4508;SDS011;2267;48.816;9.230;2023-05-07T09:21:49;7.83;;;3.60;;
4508;SDS011;2267;48.816;9.230;2023-05-07T09:24:23;4.67;;;3.00;;
4508;SDS011;2267;48.816;9.230;2023-05-07T09:26:50;2.73;;;2.47;;
4508;SDS011;2267;48.816;9.230;2023-05-07T09:29:17;2.80;;;2.50;;
4508;SDS011;2267;48.816;9.230;2023-05-07T09:31:44;3.47;;;2.57;;
4508;SDS011;2267;48.816;9.230;2023-05-07T09:34:11;5.93;;;3.17;;
4508;SDS011;2267;48.816;9.230;2023-05-07T09:36:38;4.23;;;2.80;;
4508;SDS011;2267;48.816;9.230;2023-05-07T09:39:05;3.23;;;2.93;;
4508;SDS011;2267;48.816;9.230;2023-05-07T09:41:32;3.00;;;2.70;;
4508;SDS011;2267;48.816;9.230;2023-05-07T09:43:58;3.50;;;2.47;;
4508;SDS011;2267;48.816;9.230;2023-05-07T09:46:30;3.30;;;3.00;;
4508;SDS011;2267;48.816;9.230;2023-05-07T09:48:59;3.80;;;2.70;;
4508;SDS011;2267;48.816;9.230;2023-05-07T09:51:29;3.97;;;2.90;;
4508;SDS011;2267;48.816;9.230;2023-05-07T09:54:00;4.47;;;3.30;;
4508;SDS011;2267;48.816;9.230;2023-05-07T09:56:29;2.80;;;2.60;;
4508;SDS011;2267;48.816;9.230;2023-05-07T09:58:59;3.03;;;2.83;;
4508;SDS011;2267;48.816;9.230;2023-05-07T10:01:27;2.40;;;2.17;;
4508;SDS011;2267;48.816;9.230;2023-05-07T10:03:54;4.33;;;2.57;;
4508;SDS011;2267;48.816;9.230;2023-05-07T10:06:24;3.33;;;3.00;;
4508;SDS011;2267;48.816;9.230;2023-05-07T10:08:52;2.90;;;2.60;;
4508;SDS011;2267;48.816;9.230;2023-05-07T10:11:19;3.80;;;2.70;;
4508;SDS011;2267;48.816;9.230;2023-05-07T10:13:48;4.23;;;2.80;;
4508;SDS011;2267;48.816;9.230;2023-05-07T10:16:16;2.70;;;2.43;;
4508;SDS011;2267;48.816;9.230;2023-05-07T10:18:44;3.63;;;2.10;;
4508;SDS011;2267;48.816;9.230;2023-05-07T10:21:19;3.60;;;2.60;;
4508;SDS011;2267;48.816;9.230;2023-05-07T10:23:59;3.20;;;2.90;;
4508;SDS011;2267;48.816;9.230;2023-05-07T10:26:44;4.17;;;3.43;;
4508;SDS011;2267;48.816;9.230;2023-05-07T10:34:45;3.40;;;3.10;;
4508;SDS011;2267;48.816;9.230;2023-05-07T10:37:17;3.63;;;2.80;;
4508;SDS011;2267;48.816;9.230;2023-05-07T10:39:44;4.37;;;3.23;;
4508;SDS011;2267;48.816;9.230;2023-05-07T10:42:11;2.70;;;2.40;;
4508;SDS011;2267;48.816;9.230;2023-05-07T10:44:39;3.93;;;2.97;;
4508;SDS011;2267;48.816;9.230;2023-05-07T10:47:07;3.07;;;2.43;;
4508;SDS011;2267;48.816;9.230;2023-05-07T10:52:16;4.67;;;3.20;;
4508;SDS011;2267;48.816;9.230;2023-05-07T10:54:47;5.33;;;3.40;;
4508;SDS011;2267;48.816;9.230;2023-05-07T10:57:34;3.30;;;2.40;;
4508;SDS011;2267;48.816;9.230;2023-05-07T11:05:25;3.10;;;2.70;;
4508;SDS011;2267;48.816;9.230;2023-05-07T11:07:54;3.97;;;3.50;;
4508;SDS011;2267;48.816;9.230;2023-05-07T11:10:21;2.70;;;2.50;;
4508;SDS011;2267;48.816;9.230;2023-05-07T11:12:49;3.77;;;2.67;;
4508;SDS011;2267;48.816;9.230;2023-05-07T11:15:33;3.60;;;3.07;;
4508;SDS011;2267;48.816;9.230;2023-05-07T11:18:00;3.00;;;2.67;;
4508;SDS011;2267;48.816;9.230;2023-05-07T11:20:48;4.43;;;3.10;;
4508;SDS011;2267;48.816;9.230;2023-05-07T11:26:04;3.67;;;3.13;;
4508;SDS011;2267;48.816;9.230;2023-05-07T11:28:39;3.23;;;2.80;;
4508;SDS011;2267;48.816;9.230;2023-05-07T11:31:07;2.40;;;2.20;;
4508;SDS011;2267;48.816;9.230;2023-05-07T11:33:34;2.63;;;2.30;;
4508;SDS011;2267;48.816;9.230;2023-05-07T11:36:03;2.60;;;2.40;;
4508;SDS011;2267;48.816;9.230;2023-05-07T11:38:30;2.93;;;2.63;;
4508;SDS011;2267;48.816;9.230;2023-05-07T11:41:02;5.70;;;3.00;;
4508;SDS011;2267;48.816;9.230;2023-05-07T11:43:31;3.83;;;1.83;;
4508;SDS011;2267;48.816;9.230;2023-05-07T11:46:09;2.60;;;2.40;;
4508;SDS011;2267;48.816;9.230;2023-05-07T11:48:37;4.90;;;3.07;;
4508;SDS011;2267;48.816;9.230;2023-05-07T11:51:05;4.70;;;3.30;;
4508;SDS011;2267;48.816;9.230;2023-05-07T11:53:35;5.53;;;2.73;;
4508;SDS011;2267;48.816;9.230;2023-05-07T11:56:07;3.30;;;3.00;;
4508;SDS011;2267;48.816;9.230;2023-05-07T11:58:41;3.50;;;2.47;;
4508;SDS011;2267;48.816;9.230;2023-05-07T12:01:09;2.80;;;2.13;;
4508;SDS011;2267;48.816;9.230;2023-05-07T12:03:40;3.33;;;2.37;;
4508;SDS011;2267;48.816;9.230;2023-05-07T12:06:13;3.57;;;2.40;;
4508;SDS011;2267;48.816;9.230;2023-05-07T12:08:42;2.73;;;2.30;;
4508;SDS011;2267;48.816;9.230;2023-05-07T12:11:14;2.50;;;2.23;;
4508;SDS011;2267;48.816;9.230;2023-05-07T12:13:43;4.27;;;2.80;;
4508;SDS011;2267;48.816;9.230;2023-05-07T12:16:11;3.00;;;2.37;;
4508;SDS011;2267;48.816;9.230;2023-05-07T12:18:38;2.80;;;2.53;;
4508;SDS011;2267;48.816;9.230;2023-05-07T12:21:06;5.50;;;4.00;;
4508;SDS011;2267;48.816;9.230;2023-05-07T12:23:34;3.43;;;2.90;;
4508;SDS011;2267;48.816;9.230;2023-05-07T12:26:02;6.63;;;3.47;;
4508;SDS011;2267;48.816;9.230;2023-05-07T12:28:36;5.37;;;4.10;;
4508;SDS011;2267;48.816;9.230;2023-05-07T12:31:05;4.50;;;4.10;;
4508;SDS011;2267;48.816;9.230;2023-05-07T12:33:32;6.70;;;4.33;;
4508;SDS011;2267;48.816;9.230;2023-05-07T12:36:02;6.07;;;3.83;;
4508;SDS011;2267;48.816;9.230;2023-05-07T12:38:35;5.70;;;4.37;;
4508;SDS011;2267;48.816;9.230;2023-05-07T12:41:03;5.90;;;4.67;;
4508;SDS011;2267;48.816;9.230;2023-05-07T12:43:31;4.47;;;3.70;;
4508;SDS011;2267;48.816;9.230;2023-05-07T12:46:04;5.90;;;3.13;;
4508;SDS011;2267;48.816;9.230;2023-05-07T12:48:32;3.60;;;2.80;;
4508;SDS011;2267;48.816;9.230;2023-05-07T12:51:00;3.97;;;3.60;;
4508;SDS011;2267;48.816;9.230;2023-05-07T12:53:28;6.70;;;3.73;;
4508;SDS011;2267;48.816;9.230;2023-05-07T12:55:58;6.73;;;4.23;;
4508;SDS011;2267;48.816;9.230;2023-05-07T12:58:27;5.23;;;4.73;;
4508;SDS011;2267;48.816;9.230;2023-05-07T13:00:56;6.50;;;4.80;;
4508;SDS011;2267;48.816;9.230;2023-05-07T13:03:32;5.23;;;4.73;;
4508;SDS011;2267;48.816;9.230;2023-05-07T13:06:01;6.57;;;4.53;;
4508;SDS011;2267;48.816;9.230;2023-05-07T13:08:34;6.97;;;6.20;;
4508;SDS011;2267;48.816;9.230;2023-05-07T13:11:07;5.30;;;4.60;;
4508;SDS011;2267;48.816;9.230;2023-05-07T13:13:35;7.63;;;5.87;;
4508;SDS011;2267;48.816;9.230;2023-05-07T13:16:03;3.60;;;2.93;;
4508;SDS011;2267;48.816;9.230;2023-05-07T13:18:32;5.30;;;3.20;;
4508;SDS011;2267;48.816;9.230;2023-05-07T13:21:00;3.93;;;2.47;;
4508;SDS011;2267;48.816;9.230;2023-05-07T13:23:27;3.60;;;2.20;;
4508;SDS011;2267;48.816;9.230;2023-05-07T13:25:54;4.43;;;2.50;;
4508;SDS011;2267;48.816;9.230;2023-05-07T13:28:25;4.87;;;1.93;;
4508;SDS011;2267;48.816;9.230;2023-05-07T13:30:52;5.53;;;2.40;;
4508;SDS011;2267;48.816;9.230;2023-05-07T13:33:21;2.83;;;2.17;;
4508;SDS011;2267;48.816;9.230;2023-05-07T13:35:47;5.20;;;2.33;;
4508;SDS011;2267;48.816;9.230;2023-05-07T13:38:14;7.43;;;2.30;;
4508;SDS011;2267;48.816;9.230;2023-05-07T13:40:42;5.30;;;2.33;;
4508;SDS011;2267;48.816;9.230;2023-05-07T13:43:09;3.37;;;2.10;;
4508;SDS011;2267;48.816;9.230;2023-05-07T13:45:36;2.60;;;1.47;;
4508;SDS011;2267;48.816;9.230;2023-05-07T13:48:03;4.33;;;1.30;;
4508;SDS011;2267;48.816;9.230;2023-05-07T13:50:31;4.30;;;1.67;;
4508;SDS011;2267;48.816;9.230;2023-05-07T13:52:58;2.97;;;1.90;;
4508;SDS011;2267;48.816;9.230;2023-05-07T13:55:24;2.33;;;1.20;;
4508;SDS011;2267;48.816;9.230;2023-05-07T13:57:58;2.43;;;1.47;;
4508;SDS011;2267;48.816;9.230;2023-05-07T14:00:27;2.83;;;1.30;;
4508;SDS011;2267;48.816;9.230;2023-05-07T14:02:55;2.47;;;1.30;;
4508;SDS011;2267;48.816;9.230;2023-05-07T14:05:23;3.50;;;1.70;;
4508;SDS011;2267;48.816;9.230;2023-05-07T14:07:51;1.90;;;1.30;;
4508;SDS011;2267;48.816;9.230;2023-05-07T14:10:18;5.03;;;2.03;;
4508;SDS011;2267;48.816;9.230;2023-05-07T14:12:45;3.70;;;1.80;;
4508;SDS011;2267;48.816;9.230;2023-05-07T14:15:13;6.93;;;6.00;;
4508;SDS011;2267;48.816;9.230;2023-05-07T14:17:42;5.10;;;3.40;;
4508;SDS011;2267;48.816;9.230;2023-05-07T14:20:09;4.03;;;2.77;;
4508;SDS011;2267;48.816;9.230;2023-05-07T14:22:37;3.33;;;2.00;;
4508;SDS011;2267;48.816;9.230;2023-05-07T14:25:04;11.80;;;3.40;;
4508;SDS011;2267;48.816;9.230;2023-05-07T14:27:32;5.50;;;2.60;;
4508;SDS011;2267;48.816;9.230;2023-05-07T14:29:59;3.10;;;2.00;;
4508;SDS011;2267;48.816;9.230;2023-05-07T14:32:26;3.87;;;2.13;;
4508;SDS011;2267;48.816;9.230;2023-05-07T14:34:53;4.57;;;2.80;;
4508;SDS011;2267;48.816;9.230;2023-05-07T14:37:20;4.30;;;2.43;;
4508;SDS011;2267;48.816;9.230;2023-05-07T14:39:47;3.80;;;2.77;;
4508;SDS011;2267;48.816;9.230;2023-05-07T14:42:16;4.07;;;2.23;;
4508;SDS011;2267;48.816;9.230;2023-05-07T14:44:43;2.80;;;1.90;;
4508;SDS011;2267;48.816;9.230;2023-05-07T14:47:12;3.60;;;2.70;;
4508;SDS011;2267;48.816;9.230;2023-05-07T14:49:39;2.90;;;2.20;;
4508;SDS011;2267;48.816;9.230;2023-05-07T14:52:07;3.23;;;2.17;;
4508;SDS011;2267;48.816;9.230;2023-05-07T14:54:36;2.70;;;1.73;;
4508;SDS011;2267;48.816;9.230;2023-05-07T14:57:04;3.17;;;2.33;;
4508;SDS011;2267;48.816;9.230;2023-05-07T14:59:32;3.30;;;2.00;;
4508;SDS011;2267;48.816;9.230;2023-05-07T15:01:59;2.80;;;2.17;;
4508;SDS011;2267;48.816;9.230;2023-05-07T15:04:29;4.27;;;2.37;;
4508;SDS011;2267;48.816;9.230;2023-05-07T15:06:56;2.73;;;1.60;;
4508;SDS011;2267;48.816;9.230;2023-05-07T15:09:23;3.27;;;2.30;;
4508;SDS011;2267;48.816;9.230;2023-05-07T15:11:50;4.20;;;2.20;;
4508;SDS011;2267;48.816;9.230;2023-05-07T15:14:17;3.20;;;2.80;;
4508;SDS011;2267;48.816;9.230;2023-05-07T15:16:44;2.90;;;2.60;;
4508;SDS011;2267;48.816;9.230;2023-05-07T15:19:12;2.43;;;2.20;;
4508;SDS011;2267;48.816;9.230;2023-05-07T15:21:41;3.50;;;2.53;;
4508;SDS011;2267;48.816;9.230;2023-05-07T15:24:08;3.87;;;2.43;;
4508;SDS011;2267;48.816;9.230;2023-05-07T15:26:35;3.50;;;3.20;;
4508;SDS011;2267;48.816;9.230;2023-05-07T15:29:02;4.60;;;3.33;;
4508;SDS011;2267;48.816;9.230;2023-05-07T15:31:36;5.00;;;3.50;;
4508;SDS011;2267;48.816;9.230;2023-05-07T15:34:05;3.83;;;2.50;;
4508;SDS011;2267;48.816;9.230;2023-05-07T15:36:32;3.50;;;2.73;;